createdAt,value
2023-03-31T00:00:12.467Z,97561.78
2023-03-31T00:03:22.805Z,97561.16
2023-03-31T00:06:25.487Z,97558.00
2023-03-31T00:09:30.217Z,97557.44
2023-03-31T00:12:32.859Z,97559.34
2023-03-31T00:15:35.738Z,97555.47
2023-03-31T00:18:41.387Z,97552.59
2023-03-31T00:21:45.261Z,97552.47
2023-03-31T00:24:48.815Z,97535.69
2023-03-31T00:27:53.026Z,97535.31
2023-03-31T00:31:01.943Z,97548.09
2023-03-31T00:34:06.603Z,97549.88
2023-03-31T00:37:10.668Z,97540.63
2023-03-31T00:40:13.518Z,97539.53
2023-03-31T00:43:29.873Z,97538.72
2023-03-31T00:46:35.663Z,97535.19
2023-03-31T00:49:42.420Z,97527.09
2023-03-31T00:52:46.117Z,97546.72
2023-03-31T00:55:52.597Z,97542.31
2023-03-31T00:58:58.423Z,97532.69
2023-03-31T01:02:03.651Z,97528.84
2023-03-31T01:05:06.547Z,97520.47
2023-03-31T01:08:09.823Z,97523.75
2023-03-31T01:11:16.781Z,97520.72
2023-03-31T01:14:19.419Z,97518.41
2023-03-31T01:17:22.957Z,97516.75
2023-03-31T01:21:07.068Z,97518.28
2023-03-31T01:24:09.897Z,97517.84
2023-03-31T01:27:44.055Z,97514.69
2023-03-31T01:30:49.820Z,97521.81
2023-03-31T01:34:23.366Z,97512.75
2023-03-31T01:38:03.620Z,97514.66
2023-03-31T01:41:31.485Z,97514.38
2023-03-31T01:44:47.505Z,97504.91
2023-03-31T01:47:59.384Z,97510.06
2023-03-31T01:51:39.077Z,97498.22
2023-03-31T01:55:06.858Z,97499.34
2023-03-31T01:58:13.830Z,97510.38
2023-03-31T02:01:26.840Z,97510.91
2023-03-31T02:04:37.168Z,97502.38
2023-03-31T02:07:59.877Z,97502.66
2023-03-31T02:11:03.103Z,97498.22
2023-03-31T02:14:10.537Z,97503.22
2023-03-31T02:17:18.700Z,97499.50
2023-03-31T02:20:21.984Z,97504.03
2023-03-31T02:23:29.871Z,97502.38
2023-03-31T02:26:42.289Z,97491.13
2023-03-31T02:29:45.236Z,97494.72
2023-03-31T02:32:48.690Z,97482.03
2023-03-31T02:35:51.939Z,97490.03
2023-03-31T02:39:10.442Z,97495.53
2023-03-31T02:42:13.529Z,97482.84
2023-03-31T02:45:46.383Z,97483.66
2023-03-31T02:48:51.374Z,97485.63
2023-03-31T02:52:16.225Z,97477.38
2023-03-31T02:55:25.386Z,97476.66
2023-03-31T02:58:49.615Z,97483.41
2023-03-31T03:02:06.371Z,97481.22
2023-03-31T03:05:20.547Z,97481.22
2023-03-31T03:08:50.906Z,97474.34
2023-03-31T03:12:09.706Z,97468.44
2023-03-31T03:15:48.222Z,97464.19
2023-03-31T03:19:02.607Z,97478.72
2023-03-31T03:22:07.377Z,97471.34
2023-03-31T03:25:14.226Z,97480.81
2023-03-31T03:28:17.882Z,97471.50
2023-03-31T03:31:24.286Z,97470.63
2023-03-31T03:34:27.372Z,97467.91
2023-03-31T03:37:30.668Z,97471.97
2023-03-31T03:40:33.605Z,97459.59
2023-03-31T03:43:36.716Z,97471.84
2023-03-31T03:46:39.653Z,97470.34
2023-03-31T03:49:42.333Z,97469.94
2023-03-31T03:52:45.676Z,97471.44
2023-03-31T03:55:50.049Z,97472.69
2023-03-31T03:58:52.795Z,97469.78
2023-03-31T04:01:55.617Z,97468.13
2023-03-31T04:04:58.642Z,97456.19
2023-03-31T04:08:01.694Z,97466.19
2023-03-31T04:11:15.646Z,97463.56
2023-03-31T04:14:20.071Z,97461.25
2023-03-31T04:17:35.004Z,97459.31
2023-03-31T04:20:38.278Z,97464.25
2023-03-31T04:23:47.043Z,97455.47
2023-03-31T04:26:51.249Z,97467.56
2023-03-31T04:29:57.690Z,97460.41
2023-03-31T04:33:03.021Z,97460.66
2023-03-31T04:36:18.341Z,97460.97
2023-03-31T04:39:27.188Z,97456.28
2023-03-31T04:42:29.994Z,97447.78
2023-03-31T04:45:32.971Z,97435.25
2023-03-31T04:48:36.355Z,97440.75
2023-03-31T04:51:39.234Z,97445.81
2023-03-31T04:54:41.956Z,97434.56
2023-03-31T04:57:44.827Z,97436.59
2023-03-31T05:00:47.580Z,97436.19
2023-03-31T05:03:50.954Z,97445.00
2023-03-31T05:06:53.961Z,97436.88
2023-03-31T05:09:59.027Z,97438.69
2023-03-31T05:13:01.920Z,97424.53
2023-03-31T05:16:09.442Z,97421.91
2023-03-31T05:19:12.578Z,97430.69
2023-03-31T05:22:15.475Z,97429.31
2023-03-31T05:25:21.204Z,97430.38
2023-03-31T05:28:24.160Z,97428.16
2023-03-31T05:31:27.748Z,97419.97
2023-03-31T05:34:30.421Z,97428.88
2023-03-31T05:37:33.270Z,97429.69
2023-03-31T05:40:36.576Z,97434.91
2023-03-31T05:43:40.180Z,97424.69
2023-03-31T05:46:44.254Z,97429.53
2023-03-31T05:49:47.090Z,97410.63
2023-03-31T05:52:49.944Z,97415.31
2023-03-31T05:55:58.170Z,97409.22
2023-03-31T05:59:01.765Z,97408.31
2023-03-31T06:02:05.737Z,97412.03
2023-03-31T06:05:08.773Z,97415.94
2023-03-31T06:08:11.951Z,97413.25
2023-03-31T06:11:20.447Z,97407.69
2023-03-31T06:14:25.615Z,97398.84
2023-03-31T06:17:28.653Z,97397.75
2023-03-31T06:20:31.761Z,97401.13
2023-03-31T06:23:35.181Z,97399.41
2023-03-31T06:26:38.310Z,97406.66
2023-03-31T06:29:41.472Z,97416.59
2023-03-31T06:32:44.646Z,97406.38
2023-03-31T06:35:47.645Z,97409.00
2023-03-31T06:38:51.396Z,97403.22
2023-03-31T06:41:56.112Z,97392.53
2023-03-31T06:45:04.694Z,97392.16
2023-03-31T06:48:07.617Z,97389.56
2023-03-31T06:51:11.210Z,97383.13
2023-03-31T06:54:14.105Z,97384.66
2023-03-31T06:57:17.156Z,97388.78
2023-03-31T07:00:22.841Z,97387.44
2023-03-31T07:03:26.215Z,97389.97
2023-03-31T07:06:29.300Z,97386.63
2023-03-31T07:09:32.254Z,97392.03
2023-03-31T07:12:35.854Z,97380.41
2023-03-31T07:15:38.598Z,97392.34
2023-03-31T07:18:42.490Z,97389.25
2023-03-31T07:21:46.144Z,97391.47
2023-03-31T07:24:49.113Z,97385.75
2023-03-31T07:27:51.899Z,97372.06
2023-03-31T07:30:54.632Z,97380.22
2023-03-31T07:33:57.783Z,97368.81
2023-03-31T07:37:00.927Z,97358.03
2023-03-31T07:40:06.013Z,97362.47
2023-03-31T07:43:08.988Z,97365.00
2023-03-31T07:46:27.297Z,97363.09
2023-03-31T07:49:30.854Z,97356.53
2023-03-31T07:52:36.068Z,97350.19
2023-03-31T07:55:38.798Z,97340.00
2023-03-31T07:58:41.961Z,97339.91
2023-03-31T08:01:44.873Z,97324.53
2023-03-31T08:04:48.112Z,97322.81
2023-03-31T08:07:51.428Z,97311.25
2023-03-31T08:10:54.540Z,97306.50
2023-03-31T08:13:57.564Z,97302.00
2023-03-31T08:17:00.930Z,97302.69
2023-03-31T08:20:07.963Z,97304.34
2023-03-31T08:23:12.452Z,97295.69
2023-03-31T08:26:20.300Z,97304.53
2023-03-31T08:29:23.099Z,97301.91
2023-03-31T08:32:25.777Z,97302.09
2023-03-31T08:35:28.805Z,97295.03
2023-03-31T08:38:31.815Z,97281.84
2023-03-31T08:41:46.870Z,97274.47
2023-03-31T08:45:02.489Z,97270.69
2023-03-31T08:48:20.845Z,97268.81
2023-03-31T08:51:40.697Z,97267.66
2023-03-31T08:54:47.639Z,97259.22
2023-03-31T08:58:08.609Z,97253.25
2023-03-31T09:01:52.160Z,97245.09
2023-03-31T09:05:07.916Z,97244.44
2023-03-31T09:08:29.371Z,97239.13
2023-03-31T09:11:57.350Z,97231.47
2023-03-31T09:15:22.954Z,97223.84
2023-03-31T09:18:25.705Z,97218.91
2023-03-31T09:21:35.629Z,97215.19
2023-03-31T09:25:04.115Z,97212.31
2023-03-31T09:28:15.058Z,97216.41
2023-03-31T09:31:20.751Z,97207.84
2023-03-31T09:34:29.986Z,97205.47
2023-03-31T09:37:33.663Z,97202.78
2023-03-31T09:40:36.320Z,97202.50
2023-03-31T09:43:41.581Z,97197.63
2023-03-31T09:46:44.402Z,97190.28
2023-03-31T09:49:53.708Z,97188.81
2023-03-31T09:52:59.850Z,97198.63
2023-03-31T09:56:06.557Z,97187.88
2023-03-31T09:59:19.247Z,97185.38
2023-03-31T10:02:28.797Z,97188.41
2023-03-31T10:05:32.881Z,97182.56
2023-03-31T10:08:51.657Z,97175.22
2023-03-31T10:11:58.055Z,97172.22
2023-03-31T10:15:22.115Z,97167.94
2023-03-31T10:18:37.531Z,97166.69
2023-03-31T10:21:40.752Z,97157.16
2023-03-31T10:24:45.949Z,97143.09
2023-03-31T10:27:52.351Z,97149.38
2023-03-31T10:30:58.247Z,97139.19
2023-03-31T10:34:15.884Z,97147.38
2023-03-31T10:37:21.477Z,97148.72
2023-03-31T10:40:26.785Z,97133.59
2023-03-31T10:43:31.464Z,97125.03
2023-03-31T10:46:51.665Z,97128.81
2023-03-31T10:49:58.131Z,97118.66
2023-03-31T10:53:06.517Z,97114.16
2023-03-31T10:56:35.551Z,97109.31
2023-03-31T11:00:24.970Z,97117.16
2023-03-31T11:03:49.349Z,97106.38
2023-03-31T11:06:58.036Z,97091.56
2023-03-31T11:10:15.872Z,97097.63
2023-03-31T11:13:24.416Z,97084.56
2023-03-31T11:16:27.555Z,97081.22
2023-03-31T11:19:44.618Z,97086.25
2023-03-31T11:23:05.724Z,97073.59
2023-03-31T11:26:29.862Z,97063.09
2023-03-31T11:29:38.581Z,97051.97
2023-03-31T11:32:47.068Z,97051.97
2023-03-31T11:36:08.024Z,97031.09
2023-03-31T11:39:19.770Z,97031.47
2023-03-31T11:42:35.715Z,97046.56
2023-03-31T11:45:46.847Z,97024.31
2023-03-31T11:48:58.934Z,97023.06
2023-03-31T11:52:05.507Z,97029.91
2023-03-31T11:55:18.670Z,97007.88
2023-03-31T11:58:27.501Z,97003.69
2023-03-31T12:01:42.996Z,96987.44
2023-03-31T12:04:52.674Z,96976.41
2023-03-31T12:08:05.407Z,96982.81
2023-03-31T12:11:23.085Z,96977.94
2023-03-31T12:14:37.145Z,96971.06
2023-03-31T12:17:41.971Z,96970.63
2023-03-31T12:20:52.346Z,96958.25
2023-03-31T12:23:55.168Z,96939.44
2023-03-31T12:27:22.356Z,96938.41
2023-03-31T12:30:37.793Z,96952.84
2023-03-31T12:33:44.588Z,96943.41
2023-03-31T12:37:14.090Z,96933.06
2023-03-31T12:40:38.223Z,96928.03
2023-03-31T12:43:53.984Z,96897.94
2023-03-31T12:47:15.573Z,96884.44
2023-03-31T12:50:28.141Z,96869.28
2023-03-31T12:53:44.624Z,96863.16
2023-03-31T12:57:02.609Z,96841.28
2023-03-31T13:00:10.858Z,96830.41
2023-03-31T13:03:43.350Z,96823.97
2023-03-31T13:06:51.309Z,96801.66
2023-03-31T13:09:58.325Z,96795.78
2023-03-31T13:13:02.648Z,96791.91
2023-03-31T13:16:07.661Z,96795.13
2023-03-31T13:19:33.894Z,96783.97
2023-03-31T13:22:38.287Z,96780.50
2023-03-31T13:25:52.646Z,96758.41
2023-03-31T13:29:14.168Z,96754.53
2023-03-31T13:32:24.820Z,96754.94
2023-03-31T13:35:30.360Z,96749.47
2023-03-31T13:39:14.616Z,96742.34
2023-03-31T13:42:41.727Z,96742.34
2023-03-31T13:45:44.439Z,96748.66
2023-03-31T13:49:22.163Z,96738.09
2023-03-31T13:53:00.280Z,96737.25
2023-03-31T13:56:41.204Z,96739.69
2023-03-31T14:00:13.014Z,96741.13
2023-03-31T14:03:34.581Z,96741.13
2023-03-31T14:06:40.126Z,96748.03
2023-03-31T14:09:49.991Z,96732.59
2023-03-31T14:12:53.192Z,96720.84
2023-03-31T14:15:57.936Z,96725.31
2023-03-31T14:19:14.298Z,96713.94
2023-03-31T14:22:32.926Z,96694.47
2023-03-31T14:25:47.692Z,96681.66
2023-03-31T14:29:29.155Z,96683.91
2023-03-31T14:32:38.946Z,96678.00
2023-03-31T14:36:20.396Z,96670.09
2023-03-31T14:39:24.598Z,96666.03
2023-03-31T14:42:39.920Z,96668.69
2023-03-31T14:45:43.886Z,96659.28
2023-03-31T14:48:48.554Z,96663.09
2023-03-31T14:51:53.552Z,96655.78
2023-03-31T14:54:56.474Z,96657.81
2023-03-31T14:58:01.324Z,96665.38
2023-03-31T15:01:07.300Z,96668.03
2023-03-31T15:04:14.951Z,96668.03
2023-03-31T15:07:18.426Z,96661.97
2023-03-31T15:10:21.956Z,96653.44
2023-03-31T15:14:00.755Z,96648.81
2023-03-31T15:17:13.954Z,96646.16
2023-03-31T15:20:32.130Z,96644.09
2023-03-31T15:23:40.980Z,96637.56
2023-03-31T15:26:59.737Z,96630.41
2023-03-31T15:30:08.097Z,96620.47
2023-03-31T15:33:20.166Z,96590.38
2023-03-31T15:36:23.845Z,96600.00
2023-03-31T15:39:28.739Z,96587.00
2023-03-31T15:42:32.566Z,96586.22
2023-03-31T15:45:39.669Z,96571.50
2023-03-31T15:48:56.470Z,96560.50
2023-03-31T15:52:00.994Z,96562.91
2023-03-31T15:55:23.846Z,96557.25
2023-03-31T15:58:56.180Z,96569.84
2023-03-31T16:02:00.445Z,96576.75
2023-03-31T16:05:10.429Z,96580.41
2023-03-31T16:08:22.657Z,96563.38
2023-03-31T16:11:37.418Z,96570.28
2023-03-31T16:15:06.637Z,96563.81
2023-03-31T16:18:27.508Z,96548.59
2023-03-31T16:21:40.010Z,96555.31
2023-03-31T16:24:42.996Z,96542.34
2023-03-31T16:27:48.368Z,96542.75
2023-03-31T16:30:51.301Z,96537.84
2023-03-31T16:33:56.155Z,96539.88
2023-03-31T16:36:58.921Z,96538.66
2023-03-31T16:40:01.776Z,96527.72
2023-03-31T16:43:18.741Z,96523.25
2023-03-31T16:46:22.815Z,96523.66
2023-03-31T16:49:26.844Z,96518.19
2023-03-31T16:52:29.882Z,96517.75
2023-03-31T16:55:32.904Z,96514.53
2023-03-31T16:58:38.022Z,96511.28
2023-03-31T17:01:41.612Z,96501.38
2023-03-31T17:04:48.514Z,96508.66
2023-03-31T17:07:53.140Z,96518.78
2023-03-31T17:11:03.990Z,96516.56
2023-03-31T17:14:07.118Z,96516.94
2023-03-31T17:17:10.057Z,96522.44
2023-03-31T17:20:13.327Z,96523.22
2023-03-31T17:23:16.250Z,96518.94
2023-03-31T17:26:19.576Z,96521.16
2023-03-31T17:29:22.557Z,96513.88
2023-03-31T17:32:25.363Z,96519.94
2023-03-31T17:35:28.463Z,96517.13
2023-03-31T17:38:31.278Z,96519.56
2023-03-31T17:41:34.289Z,96530.47
2023-03-31T17:44:37.876Z,96517.53
2023-03-31T17:47:41.983Z,96533.50
2023-03-31T17:50:45.184Z,96539.97
2023-03-31T17:53:48.680Z,96522.84
2023-03-31T17:56:51.970Z,96528.50
2023-03-31T17:59:54.968Z,96521.81
2023-03-31T18:02:59.259Z,96545.50
2023-03-31T18:06:12.325Z,96548.38
2023-03-31T18:09:15.802Z,96557.47
2023-03-31T18:12:21.322Z,96561.72
2023-03-31T18:15:28.718Z,96564.94
2023-03-31T18:18:32.003Z,96567.34
2023-03-31T18:21:35.813Z,96548.09
2023-03-31T18:24:40.664Z,96550.69
2023-03-31T18:27:43.647Z,96554.78
2023-03-31T18:30:47.587Z,96549.84
2023-03-31T18:33:52.753Z,96548.44
2023-03-31T18:36:56.172Z,96548.59
2023-03-31T18:39:59.006Z,96551.81
2023-03-31T18:43:03.109Z,96550.19
2023-03-31T18:46:06.403Z,96545.09
2023-03-31T18:49:09.898Z,96547.13
2023-03-31T18:52:12.701Z,96536.75
2023-03-31T18:55:15.476Z,96547.91
2023-03-31T18:58:18.608Z,96536.03
2023-03-31T19:01:22.047Z,96556.53
2023-03-31T19:04:25.198Z,96544.13
2023-03-31T19:07:28.177Z,96548.75
2023-03-31T19:10:31.434Z,96560.69
2023-03-31T19:13:34.840Z,96558.38
2023-03-31T19:16:42.855Z,96552.50
2023-03-31T19:19:46.419Z,96545.44
2023-03-31T19:22:51.032Z,96548.88
2023-03-31T19:25:54.861Z,96542.91
2023-03-31T19:28:57.889Z,96546.16
2023-03-31T19:32:00.920Z,96531.97
2023-03-31T19:35:03.914Z,96535.19
2023-03-31T19:38:06.724Z,96538.41
2023-03-31T19:41:11.412Z,96531.97
2023-03-31T19:44:14.370Z,96538.03
2023-03-31T19:47:17.282Z,96531.97
2023-03-31T19:50:20.058Z,96547.69
2023-03-31T19:53:24.003Z,96551.16
2023-03-31T19:56:27.915Z,96550.56
2023-03-31T19:59:30.798Z,96560.06
2023-03-31T20:02:33.794Z,96555.41
2023-03-31T20:05:36.890Z,96553.56
2023-03-31T20:08:44.322Z,96550.31
2023-03-31T20:11:47.694Z,96554.78
2023-03-31T20:14:50.587Z,96556.97
2023-03-31T20:17:53.400Z,96567.84
2023-03-31T20:21:10.896Z,96568.78
2023-03-31T20:24:17.754Z,96565.81
2023-03-31T20:27:23.475Z,96570.97
2023-03-31T20:30:26.396Z,96573.63
2023-03-31T20:33:29.331Z,96572.19
2023-03-31T20:36:32.375Z,96575.50
2023-03-31T20:39:35.203Z,96578.16
2023-03-31T20:42:38.296Z,96580.34
2023-03-31T20:45:41.807Z,96588.00
2023-03-31T20:48:47.039Z,96591.38
2023-03-31T20:51:49.896Z,96585.53
2023-03-31T20:54:52.640Z,96591.75
2023-03-31T20:57:55.756Z,96595.63
2023-03-31T21:00:59.474Z,96602.16
2023-03-31T21:04:04.482Z,96600.28
2023-03-31T21:07:07.342Z,96608.31
2023-03-31T21:10:11.777Z,96603.44
2023-03-31T21:13:16.696Z,96592.94
2023-03-31T21:16:20.245Z,96584.25
2023-03-31T21:19:23.490Z,96576.81
2023-03-31T21:22:27.743Z,96579.63
2023-03-31T21:25:32.679Z,96589.28
2023-03-31T21:28:37.381Z,96599.19
2023-03-31T21:31:42.373Z,96585.38
2023-03-31T21:34:45.228Z,96584.75
2023-03-31T21:37:48.431Z,96583.38
2023-03-31T21:40:56.074Z,96578.56
2023-03-31T21:44:01.792Z,96591.50
2023-03-31T21:47:05.397Z,96581.88
2023-03-31T21:50:08.850Z,96581.50
2023-03-31T21:53:11.740Z,96584.38
2023-03-31T21:56:15.265Z,96584.25
2023-03-31T21:59:18.001Z,96581.38
2023-03-31T22:02:20.864Z,96589.88
2023-03-31T22:05:23.846Z,96585.56
2023-03-31T22:08:27.495Z,96582.75
2023-03-31T22:11:30.201Z,96577.13
2023-03-31T22:14:32.956Z,96579.97
2023-03-31T22:17:36.117Z,96585.72
2023-03-31T22:20:39.037Z,96584.88
2023-03-31T22:23:41.829Z,96573.94
2023-03-31T22:26:44.473Z,96576.25
2023-03-31T22:29:47.634Z,96581.13
2023-03-31T22:32:51.134Z,96573.13
2023-03-31T22:35:53.992Z,96556.63
2023-03-31T22:38:56.751Z,96564.88
2023-03-31T22:41:59.580Z,96552.31
2023-03-31T22:45:02.408Z,96560.72
2023-03-31T22:48:05.789Z,96567.63
2023-03-31T22:51:09.279Z,96568.81
2023-03-31T22:54:14.607Z,96561.47
2023-03-31T22:57:17.355Z,96560.94
2023-03-31T23:00:20.234Z,96564.59
2023-03-31T23:03:22.991Z,96558.31
2023-03-31T23:06:25.727Z,96555.63
2023-03-31T23:09:30.568Z,96543.75
2023-03-31T23:12:33.259Z,96543.59
2023-03-31T23:15:37.123Z,96538.34
2023-03-31T23:18:44.757Z,96535.81
2023-03-31T23:21:47.357Z,96529.59
2023-03-31T23:24:50.044Z,96525.69
2023-03-31T23:27:52.772Z,96524.44
2023-03-31T23:30:57.313Z,96521.66
2023-03-31T23:34:00.765Z,96517.94
2023-03-31T23:37:03.556Z,96519.91
2023-03-31T23:40:06.872Z,96515.41
2023-03-31T23:43:09.526Z,96511.53
2023-03-31T23:46:15.478Z,96508.03
2023-03-31T23:49:18.441Z,96515.88
2023-03-31T23:52:21.661Z,96509.50
2023-03-31T23:55:24.539Z,96506.97
2023-03-31T23:58:27.661Z,96509.69
